createdAt,value
2022-11-14T00:03:34.768Z,96380.00
2022-11-14T00:07:39.173Z,96368.00
2022-11-14T00:11:42.202Z,96361.00
2022-11-14T00:15:45.983Z,96372.00
2022-11-14T00:20:20.018Z,96377.00
2022-11-14T00:24:24.622Z,96381.00
2022-11-14T00:28:27.886Z,96383.00
2022-11-14T00:32:32.553Z,96393.00
2022-11-14T00:36:36.121Z,96391.00
2022-11-14T00:40:40.619Z,96379.00
2022-11-14T00:44:43.612Z,96380.00
2022-11-14T00:48:47.157Z,96385.00
2022-11-14T00:52:50.190Z,96378.00
2022-11-14T00:56:54.626Z,96377.00
2022-11-14T01:00:57.995Z,96383.00
2022-11-14T01:05:02.365Z,96370.00
2022-11-14T01:09:05.575Z,96367.00
2022-11-14T01:13:10.127Z,96368.00
2022-11-14T01:17:13.178Z,96359.00
2022-11-14T01:21:16.468Z,96357.00
2022-11-14T01:25:52.944Z,96362.00
2022-11-14T01:29:57.445Z,96348.00
2022-11-14T01:34:00.576Z,96353.00
2022-11-14T01:38:03.830Z,96343.00
2022-11-14T01:42:37.618Z,96332.00
2022-11-14T01:46:44.267Z,96335.00
2022-11-14T01:50:48.068Z,96328.00
2022-11-14T01:54:56.915Z,96329.00
2022-11-14T01:59:03.871Z,96315.00
2022-11-14T02:03:09.573Z,96316.00
2022-11-14T02:07:15.055Z,96304.00
2022-11-14T02:11:18.155Z,96307.00
2022-11-14T02:15:55.301Z,96302.00
2022-11-14T02:20:07.512Z,96308.00
2022-11-14T02:24:11.647Z,96299.00
2022-11-14T02:28:14.676Z,96299.00
2022-11-14T02:37:13.168Z,96310.00
2022-11-14T02:41:16.531Z,96308.00
2022-11-14T02:45:20.911Z,96303.00
2022-11-14T02:49:24.017Z,96294.00
2022-11-14T02:53:28.441Z,96300.00
2022-11-14T02:57:31.451Z,96297.00
2022-11-14T03:01:34.492Z,96287.00
2022-11-14T03:05:37.564Z,96281.00
2022-11-14T03:09:42.013Z,96266.00
2022-11-14T03:14:15.824Z,96271.00
2022-11-14T03:18:18.836Z,96276.00
2022-11-14T03:22:21.848Z,96276.00
2022-11-14T03:26:26.289Z,96282.00
2022-11-14T03:30:29.343Z,96274.00
2022-11-14T03:35:06.834Z,96279.00
2022-11-14T03:39:09.906Z,96273.00
2022-11-14T03:43:14.335Z,96279.00
2022-11-14T03:47:17.421Z,96270.00
2022-11-14T03:51:20.514Z,96285.00
2022-11-14T03:55:23.612Z,96275.00
2022-11-14T03:59:28.044Z,96271.00
2022-11-14T04:04:01.947Z,96268.00
2022-11-14T04:08:06.273Z,96269.00
2022-11-14T04:12:39.741Z,96271.00
2022-11-14T04:16:44.204Z,96277.00
2022-11-14T04:20:47.272Z,96275.00
2022-11-14T04:24:50.313Z,96283.00
2022-11-14T04:28:53.447Z,96273.00
2022-11-14T04:33:31.615Z,96267.00
2022-11-14T04:38:05.958Z,96276.00
2022-11-14T04:42:39.722Z,96281.00
2022-11-14T04:47:16.413Z,96282.00
2022-11-14T04:51:54.726Z,96288.00
2022-11-14T04:56:29.583Z,96289.00
2022-11-14T05:01:08.793Z,96294.00
2022-11-14T05:05:42.518Z,96297.00
2022-11-14T05:09:47.198Z,96305.00
2022-11-14T05:14:21.240Z,96301.00
2022-11-14T05:18:58.217Z,96296.00
2022-11-14T05:23:35.076Z,96294.00
2022-11-14T05:28:13.329Z,96286.00
2022-11-14T05:32:47.079Z,96282.00
2022-11-14T05:37:23.797Z,96292.00
2022-11-14T05:42:00.530Z,96287.00
2022-11-14T05:46:38.936Z,96279.00
2022-11-14T05:51:14.083Z,96263.00
2022-11-14T05:55:47.921Z,96279.00
2022-11-14T06:00:24.855Z,96281.00
2022-11-14T06:05:03.315Z,96283.00
2022-11-14T06:09:37.282Z,96290.00
2022-11-14T06:14:14.534Z,96305.00
2022-11-14T06:18:53.825Z,96310.00
2022-11-14T06:23:27.809Z,96325.00
2022-11-14T06:28:06.348Z,96322.00
2022-11-14T06:32:40.400Z,96330.00
2022-11-14T06:37:17.136Z,96329.00
2022-11-14T06:41:22.008Z,96333.00
2022-11-14T06:45:57.299Z,96337.00
2022-11-14T06:50:33.889Z,96350.00
2022-11-14T06:55:10.685Z,96355.00
2022-11-14T06:59:48.155Z,96359.00
2022-11-14T07:04:26.668Z,96345.00
2022-11-14T07:09:01.086Z,96339.00
2022-11-14T07:13:35.538Z,96351.00
2022-11-14T07:18:09.309Z,96346.00
2022-11-14T07:22:13.753Z,96342.00
2022-11-14T07:26:16.794Z,96340.00
2022-11-14T07:30:19.956Z,96353.00
2022-11-14T07:35:01.767Z,96343.00
2022-11-14T07:39:06.949Z,96342.00
2022-11-14T07:43:40.492Z,96335.00
2022-11-14T07:48:17.723Z,96348.00
2022-11-14T07:52:54.905Z,96332.00
2022-11-14T07:57:38.513Z,96350.00
2022-11-14T08:02:10.494Z,96343.00
2022-11-14T08:06:44.618Z,96327.00
2022-11-14T08:11:38.830Z,96335.00
2022-11-14T08:15:56.301Z,96323.00
2022-11-14T08:19:59.621Z,96327.00
2022-11-14T08:24:33.387Z,96315.00
2022-11-14T08:29:10.134Z,96319.00
2022-11-14T08:33:50.070Z,96313.00
2022-11-14T08:38:23.534Z,96329.00
2022-11-14T08:42:26.575Z,96327.00
2022-11-14T08:46:29.702Z,96325.00
2022-11-14T08:51:05.984Z,96322.00
2022-11-14T08:55:44.759Z,96329.00
2022-11-14T09:00:16.456Z,96324.00
2022-11-14T09:04:19.593Z,96320.00
2022-11-14T09:08:24.762Z,96317.00
2022-11-14T09:12:38.975Z,96313.00
2022-11-14T09:17:16.059Z,96318.00
2022-11-14T09:21:19.064Z,96323.00
2022-11-14T09:25:57.685Z,96328.00
2022-11-14T09:30:35.141Z,96345.00
2022-11-14T09:34:43.010Z,96350.00
2022-11-14T09:39:16.284Z,96344.00
2022-11-14T09:44:05.623Z,96341.00
2022-11-14T09:48:31.912Z,96347.00
2022-11-14T09:53:04.963Z,96338.00
2022-11-14T09:57:39.058Z,96336.00
2022-11-14T10:02:22.143Z,96340.00
2022-11-14T10:06:53.213Z,96349.00
2022-11-14T10:11:34.868Z,96348.00
2022-11-14T10:16:08.839Z,96349.00
2022-11-14T10:20:42.397Z,96353.00
2022-11-14T10:25:14.349Z,96338.00
2022-11-14T10:29:45.323Z,96339.00
2022-11-14T10:34:26.608Z,96347.00
2022-11-14T10:38:36.534Z,96343.00
2022-11-14T10:43:08.749Z,96356.00
2022-11-14T10:47:41.467Z,96355.00
2022-11-14T10:52:17.914Z,96365.00
2022-11-14T10:56:52.337Z,96360.00
2022-11-14T11:01:32.316Z,96352.00
2022-11-14T11:06:25.443Z,96353.00
2022-11-14T11:11:03.652Z,96350.00
2022-11-14T11:15:16.349Z,96362.00
2022-11-14T11:19:25.721Z,96355.00
2022-11-14T11:23:58.694Z,96355.00
2022-11-14T11:28:33.320Z,96351.00
2022-11-14T11:33:07.121Z,96348.00
2022-11-14T11:37:23.210Z,96343.00
2022-11-14T11:46:35.675Z,96338.00
2022-11-14T11:51:07.274Z,96337.00
2022-11-14T11:55:45.648Z,96334.00
2022-11-14T12:00:21.964Z,96326.00
2022-11-14T12:04:57.340Z,96333.00
2022-11-14T12:10:03.604Z,96344.00
2022-11-14T12:14:45.429Z,96343.00
2022-11-14T12:19:10.131Z,96353.00
2022-11-14T12:23:58.468Z,96356.00
2022-11-14T12:28:38.523Z,96355.00
2022-11-14T12:32:50.096Z,96366.00
2022-11-14T12:37:23.693Z,96362.00
2022-11-14T12:42:06.643Z,96367.00
2022-11-14T12:46:55.156Z,96365.00
2022-11-14T12:50:59.849Z,96368.00
2022-11-14T12:55:41.905Z,96370.00
2022-11-14T13:00:18.526Z,96366.00
2022-11-14T13:05:01.671Z,96370.00
2022-11-14T13:09:33.979Z,96376.00
2022-11-14T13:14:15.773Z,96385.00
2022-11-14T13:18:44.553Z,96374.00
2022-11-14T13:23:05.683Z,96370.00
2022-11-14T13:28:05.783Z,96368.00
2022-11-14T13:32:34.921Z,96377.00
2022-11-14T13:37:29.924Z,96376.00
2022-11-14T13:42:11.716Z,96380.00
2022-11-14T13:46:27.558Z,96381.00
2022-11-14T13:50:53.170Z,96376.00
2022-11-14T13:54:56.810Z,96368.00
2022-11-14T13:59:46.483Z,96364.00
2022-11-14T14:04:30.634Z,96368.00
2022-11-14T14:09:08.649Z,96366.00
2022-11-14T14:13:49.898Z,96358.00
2022-11-14T14:18:26.285Z,96365.00
2022-11-14T14:22:57.415Z,96362.00
2022-11-14T14:27:12.707Z,96365.00
2022-11-14T14:31:19.988Z,96355.00
2022-11-14T14:35:52.941Z,96347.00
2022-11-14T14:40:00.519Z,96352.00
2022-11-14T14:44:03.716Z,96341.00
2022-11-14T14:48:42.125Z,96340.00
2022-11-14T14:53:23.647Z,96340.00
2022-11-14T14:57:54.174Z,96331.00
2022-11-14T15:02:31.155Z,96336.00
2022-11-14T15:07:08.076Z,96341.00
2022-11-14T15:11:47.867Z,96340.00
2022-11-14T15:16:22.040Z,96324.00
2022-11-14T15:20:27.739Z,96319.00
2022-11-14T15:24:31.775Z,96317.00
2022-11-14T15:29:17.204Z,96313.00
2022-11-14T15:33:29.295Z,96320.00
2022-11-14T15:38:28.962Z,96319.00
2022-11-14T15:42:40.018Z,96316.00
2022-11-14T15:46:50.847Z,96327.00
2022-11-14T15:50:54.127Z,96312.00
2022-11-14T15:54:57.362Z,96318.00
2022-11-14T15:59:35.205Z,96318.00
2022-11-14T16:03:39.750Z,96317.00
2022-11-14T16:07:42.799Z,96309.00
2022-11-14T16:12:19.961Z,96317.00
2022-11-14T16:16:24.523Z,96315.00
2022-11-14T16:20:35.976Z,96303.00
2022-11-14T16:25:04.075Z,96307.00
2022-11-14T16:29:40.906Z,96302.00
2022-11-14T16:34:20.247Z,96302.00
2022-11-14T16:38:59.842Z,96295.00
2022-11-14T16:43:03.490Z,96304.00
2022-11-14T16:47:09.976Z,96306.00
2022-11-14T16:51:47.662Z,96295.00
2022-11-14T16:56:18.134Z,96301.00
2022-11-14T17:00:51.835Z,96302.00
2022-11-14T17:05:28.381Z,96306.00
2022-11-14T17:10:13.389Z,96317.00
2022-11-14T17:14:30.097Z,96312.00
2022-11-14T17:19:03.735Z,96309.00
2022-11-14T17:23:40.369Z,96314.00
2022-11-14T17:28:16.852Z,96309.00
2022-11-14T17:32:56.680Z,96306.00
2022-11-14T17:37:30.691Z,96308.00
2022-11-14T17:42:07.931Z,96303.00
2022-11-14T17:46:16.127Z,96303.00
2022-11-14T17:50:48.526Z,96297.00
2022-11-14T17:54:51.597Z,96297.00
2022-11-14T17:58:55.250Z,96296.00
2022-11-14T18:02:58.323Z,96298.00
2022-11-14T18:07:35.298Z,96291.00
2022-11-14T18:12:13.475Z,96290.00
2022-11-14T18:16:18.388Z,96299.00
2022-11-14T18:20:21.468Z,96298.00
2022-11-14T18:25:04.880Z,96303.00
2022-11-14T18:29:36.830Z,96302.00
2022-11-14T18:34:10.534Z,96309.00
2022-11-14T18:38:47.560Z,96308.00
2022-11-14T18:43:24.374Z,96316.00
2022-11-14T18:47:30.380Z,96316.00
2022-11-14T18:52:11.357Z,96311.00
2022-11-14T18:56:42.539Z,96301.00
2022-11-14T19:01:18.618Z,96305.00
2022-11-14T19:05:53.896Z,96308.00
2022-11-14T19:10:27.840Z,96308.00
2022-11-14T19:15:04.755Z,96307.00
2022-11-14T19:19:41.674Z,96310.00
2022-11-14T19:24:20.053Z,96314.00
2022-11-14T19:28:53.993Z,96320.00
2022-11-14T19:33:31.041Z,96323.00
2022-11-14T19:38:08.864Z,96326.00
2022-11-14T19:42:44.121Z,96321.00
2022-11-14T19:47:18.102Z,96335.00
2022-11-14T19:51:22.491Z,96327.00
2022-11-14T19:55:56.367Z,96320.00
2022-11-14T20:00:00.790Z,96320.00
2022-11-14T20:04:37.795Z,96324.00
2022-11-14T20:09:09.647Z,96317.00
2022-11-14T20:13:46.443Z,96320.00
2022-11-14T20:18:23.065Z,96324.00
2022-11-14T20:22:27.630Z,96318.00
2022-11-14T20:27:04.641Z,96318.00
2022-11-14T20:31:41.396Z,96313.00
2022-11-14T20:36:19.223Z,96311.00
2022-11-14T20:40:58.224Z,96306.00
2022-11-14T20:45:01.434Z,96310.00
2022-11-14T20:49:04.593Z,96312.00
2022-11-14T20:53:41.434Z,96310.00
2022-11-14T20:57:46.021Z,96307.00
2022-11-14T21:02:23.036Z,96321.00
2022-11-14T21:06:26.137Z,96321.00
2022-11-14T21:11:05.287Z,96309.00
2022-11-14T21:15:10.914Z,96304.00
2022-11-14T21:19:13.937Z,96305.00
2022-11-14T21:23:16.971Z,96312.00
2022-11-14T21:27:20.035Z,96306.00
2022-11-14T21:31:58.358Z,96293.00
2022-11-14T21:36:11.347Z,96298.00
2022-11-14T21:40:39.976Z,96291.00
2022-11-14T21:44:43.034Z,96281.00
2022-11-14T21:49:21.358Z,96292.00
2022-11-14T21:53:24.377Z,96287.00
2022-11-14T21:57:27.388Z,96285.00
2022-11-14T22:02:21.632Z,96283.00
2022-11-14T22:06:27.372Z,96277.00
2022-11-14T22:10:31.754Z,96275.00
2022-11-14T22:14:34.758Z,96283.00
2022-11-14T22:19:11.847Z,96284.00
2022-11-14T22:23:16.734Z,96283.00
2022-11-14T22:27:50.489Z,96276.00
2022-11-14T22:31:55.525Z,96286.00
2022-11-14T22:36:29.565Z,96288.00
2022-11-14T22:40:34.063Z,96287.00
2022-11-14T22:45:08.540Z,96297.00
2022-11-14T22:49:11.575Z,96296.00
2022-11-14T22:53:48.984Z,96288.00
2022-11-14T22:57:53.410Z,96289.00
2022-11-14T23:02:27.255Z,96292.00
2022-11-14T23:06:31.960Z,96290.00
2022-11-14T23:11:06.597Z,96284.00
2022-11-14T23:15:11.621Z,96292.00
2022-11-14T23:19:45.585Z,96281.00
2022-11-14T23:23:54.863Z,96284.00
2022-11-14T23:28:25.861Z,96289.00
2022-11-14T23:32:30.689Z,96278.00
2022-11-14T23:36:33.780Z,96281.00
2022-11-14T23:41:10.568Z,96274.00
2022-11-14T23:45:13.647Z,96277.00
2022-11-14T23:49:18.078Z,96269.00
2022-11-14T23:53:52.132Z,96268.00
2022-11-14T23:57:55.190Z,96270.00
